createdAt,value
2019-05-23T00:02:37.747Z,8.40
2019-05-23T00:05:28.109Z,8.40
2019-05-23T00:08:01.006Z,8.30
2019-05-23T00:10:35.860Z,8.20
2019-05-23T00:13:19.456Z,8.20
2019-05-23T00:15:53.093Z,8.20
2019-05-23T00:18:24.100Z,8.10
2019-05-23T00:20:55.695Z,8.10
2019-05-23T00:23:26.747Z,8.00
2019-05-23T00:25:56.916Z,8.00
2019-05-23T00:28:28.763Z,8.00
2019-05-23T00:31:12.155Z,7.90
2019-05-23T00:33:43.894Z,7.90
2019-05-23T00:36:16.187Z,7.90
2019-05-23T00:38:47.065Z,7.90
2019-05-23T00:41:19.399Z,7.90
2019-05-23T00:43:51.652Z,7.80
2019-05-23T00:46:22.230Z,7.80
2019-05-23T00:48:52.161Z,7.80
2019-05-23T00:51:23.521Z,7.80
2019-05-23T00:53:53.832Z,7.80
2019-05-23T00:56:25.051Z,7.80
2019-05-23T00:58:56.156Z,7.80
2019-05-23T01:01:29.080Z,7.80
2019-05-23T01:03:59.853Z,7.80
2019-05-23T01:06:31.246Z,7.80
2019-05-23T01:09:02.908Z,7.70
2019-05-23T01:11:33.638Z,7.60
2019-05-23T01:14:08.473Z,7.60
2019-05-23T01:16:39.770Z,7.60
2019-05-23T01:19:10.062Z,7.60
2019-05-23T01:21:49.067Z,7.60
2019-05-23T01:24:23.075Z,7.60
2019-05-23T01:26:54.574Z,7.70
2019-05-23T01:29:37.142Z,7.60
2019-05-23T01:32:03.699Z,7.60
2019-05-23T01:34:34.060Z,7.60
2019-05-23T01:37:05.976Z,7.60
2019-05-23T01:39:37.425Z,7.50
2019-05-23T01:42:08.096Z,7.40
2019-05-23T01:44:39.706Z,7.50
2019-05-23T01:47:09.829Z,7.50
2019-05-23T01:49:40.198Z,7.40
2019-05-23T01:52:11.854Z,7.40
2019-05-23T01:54:42.654Z,7.60
2019-05-23T01:57:13.041Z,7.70
2019-05-23T01:59:42.877Z,7.60
2019-05-23T02:02:13.897Z,7.60
2019-05-23T02:04:44.107Z,7.40
2019-05-23T02:07:14.336Z,7.50
2019-05-23T02:09:45.182Z,7.40
2019-05-23T02:12:16.616Z,7.40
2019-05-23T02:14:47.051Z,7.40
2019-05-23T02:17:19.146Z,7.40
2019-05-23T02:19:49.678Z,7.40
2019-05-23T02:22:20.373Z,7.40
2019-05-23T02:24:51.106Z,7.30
2019-05-23T02:27:21.972Z,7.20
2019-05-23T02:29:52.234Z,7.20
2019-05-23T02:32:23.778Z,7.30
2019-05-23T02:34:55.793Z,7.30
2019-05-23T02:37:43.471Z,7.30
2019-05-23T02:40:19.212Z,7.20
2019-05-23T02:42:55.280Z,7.30
2019-05-23T02:45:31.848Z,7.30
2019-05-23T02:48:02.292Z,7.40
2019-05-23T02:50:40.655Z,7.30
2019-05-23T02:53:14.374Z,7.40
2019-05-23T02:55:46.551Z,7.30
2019-05-23T02:58:33.475Z,7.40
2019-05-23T03:01:29.754Z,7.30
2019-05-23T03:04:05.733Z,7.40
2019-05-23T03:06:38.255Z,7.40
2019-05-23T03:09:08.721Z,7.30
2019-05-23T03:11:44.033Z,7.30
2019-05-23T03:14:15.720Z,7.30
2019-05-23T03:16:48.488Z,7.30
2019-05-23T03:19:36.905Z,7.40
2019-05-23T03:22:29.234Z,7.30
2019-05-23T03:25:31.380Z,7.30
2019-05-23T03:28:04.776Z,7.20
2019-05-23T03:30:37.951Z,7.20
2019-05-23T03:33:10.027Z,7.20
2019-05-23T03:35:41.856Z,7.20
2019-05-23T03:38:12.792Z,7.20
2019-05-23T03:40:42.824Z,7.20
2019-05-23T03:43:13.554Z,7.20
2019-05-23T03:45:50.319Z,7.20
2019-05-23T03:48:21.759Z,7.10
2019-05-23T03:50:52.439Z,7.20
2019-05-23T03:53:24.337Z,7.20
2019-05-23T03:55:54.368Z,7.20
2019-05-23T03:58:25.412Z,7.20
2019-05-23T04:00:57.128Z,7.50
2019-05-23T04:03:27.410Z,7.30
2019-05-23T04:05:58.827Z,7.40
2019-05-23T04:08:29.787Z,7.40
2019-05-23T04:11:00.524Z,7.60
2019-05-23T04:13:30.982Z,7.70
2019-05-23T04:16:01.617Z,7.60
2019-05-23T04:18:33.141Z,7.80
2019-05-23T04:21:03.741Z,8.00
2019-05-23T04:23:35.095Z,8.00
2019-05-23T04:26:05.255Z,7.90
2019-05-23T04:28:35.730Z,7.90
2019-05-23T04:31:06.162Z,8.10
2019-05-23T04:33:36.283Z,8.10
2019-05-23T04:36:07.111Z,8.20
2019-05-23T04:38:37.393Z,8.10
2019-05-23T04:41:07.219Z,8.10
2019-05-23T04:43:37.591Z,8.20
2019-05-23T04:46:08.443Z,8.20
2019-05-23T04:48:39.117Z,8.20
2019-05-23T04:51:09.187Z,8.30
2019-05-23T04:53:39.805Z,8.30
2019-05-23T04:56:10.812Z,8.40
2019-05-23T04:58:41.295Z,8.50
2019-05-23T05:01:13.136Z,8.50
2019-05-23T05:03:44.948Z,8.60
2019-05-23T05:06:15.589Z,8.70
2019-05-23T05:08:46.337Z,8.70
2019-05-23T05:11:16.191Z,8.80
2019-05-23T05:13:46.135Z,8.80
2019-05-23T05:16:16.759Z,9.00
2019-05-23T05:18:47.030Z,8.90
2019-05-23T05:21:16.903Z,9.00
2019-05-23T05:23:46.673Z,9.10
2019-05-23T05:26:22.296Z,9.20
2019-05-23T05:28:53.661Z,9.30
2019-05-23T05:31:23.778Z,9.40
2019-05-23T05:33:54.187Z,9.60
2019-05-23T05:36:24.590Z,9.80
2019-05-23T05:38:54.839Z,9.90
2019-05-23T05:41:26.058Z,10.10
2019-05-23T05:43:56.531Z,10.30
2019-05-23T05:46:26.845Z,10.40
2019-05-23T05:48:57.441Z,10.50
2019-05-23T05:51:28.785Z,10.60
2019-05-23T05:53:59.785Z,10.70
2019-05-23T05:56:29.898Z,10.80
2019-05-23T05:58:59.743Z,10.90
2019-05-23T06:01:34.015Z,11.10
2019-05-23T06:04:01.595Z,11.20
2019-05-23T06:06:36.888Z,11.30
2019-05-23T06:09:16.756Z,11.30
2019-05-23T06:11:47.090Z,11.40
2019-05-23T06:14:17.421Z,11.30
2019-05-23T06:16:47.353Z,11.40
2019-05-23T06:19:17.327Z,11.50
2019-05-23T06:21:47.909Z,11.60
2019-05-23T06:24:18.238Z,11.70
2019-05-23T06:26:48.163Z,11.80
2019-05-23T06:29:19.783Z,11.80
2019-05-23T06:31:50.825Z,11.90
2019-05-23T06:34:21.480Z,12.10
2019-05-23T06:36:51.892Z,12.20
2019-05-23T06:39:23.265Z,12.40
2019-05-23T06:41:53.185Z,12.70
2019-05-23T06:44:25.637Z,13.20
2019-05-23T06:46:55.636Z,15.10
2019-05-23T06:49:26.021Z,17.20
2019-05-23T06:51:56.129Z,19.00
2019-05-23T06:54:26.335Z,20.10
2019-05-23T06:56:56.339Z,20.70
2019-05-23T06:59:26.131Z,21.00
2019-05-23T07:01:56.456Z,21.40
2019-05-23T07:04:26.603Z,21.50
2019-05-23T07:06:57.055Z,22.10
2019-05-23T07:09:27.013Z,22.20
2019-05-23T07:11:59.523Z,21.90
2019-05-23T07:14:32.117Z,21.60
2019-05-23T07:17:02.637Z,22.90
2019-05-23T07:19:33.036Z,24.80
2019-05-23T07:22:03.879Z,24.90
2019-05-23T07:24:34.716Z,25.20
2019-05-23T07:27:04.723Z,25.60
2019-05-23T07:29:35.769Z,25.10
2019-05-23T07:32:07.511Z,26.20
2019-05-23T07:34:37.827Z,27.30
2019-05-23T07:37:07.752Z,29.00
2019-05-23T07:39:38.668Z,28.50
2019-05-23T07:42:09.663Z,28.90
2019-05-23T07:44:48.248Z,28.70
2019-05-23T07:47:13.559Z,29.40
2019-05-23T07:49:43.744Z,28.70
2019-05-23T07:52:13.808Z,29.20
2019-05-23T07:54:53.096Z,28.70
2019-05-23T07:57:24.593Z,29.10
2019-05-23T07:59:54.930Z,29.20
2019-05-23T08:02:34.378Z,29.20
2019-05-23T08:05:06.839Z,28.90
2019-05-23T08:07:38.059Z,29.20
2019-05-23T08:10:09.173Z,29.20
2019-05-23T08:12:39.930Z,29.50
2019-05-23T08:15:11.415Z,29.20
2019-05-23T08:17:42.386Z,28.10
2019-05-23T08:20:13.375Z,29.00
2019-05-23T08:22:43.358Z,29.50
2019-05-23T08:25:13.446Z,29.10
2019-05-23T08:27:43.431Z,28.00
2019-05-23T08:30:13.635Z,27.40
2019-05-23T08:32:43.844Z,28.60
2019-05-23T08:35:17.813Z,28.10
2019-05-23T08:37:46.768Z,28.40
2019-05-23T08:40:16.860Z,28.60
2019-05-23T08:42:47.547Z,30.60
2019-05-23T08:45:18.956Z,30.80
2019-05-23T08:50:51.225Z,30.00
2019-05-23T08:53:19.989Z,30.60
2019-05-23T08:55:51.027Z,31.00
2019-05-23T08:58:21.534Z,30.80
2019-05-23T09:00:51.971Z,29.20
2019-05-23T09:03:23.608Z,28.70
2019-05-23T09:05:54.585Z,28.80
2019-05-23T09:08:26.641Z,29.30
2019-05-23T09:10:57.372Z,30.20
2019-05-23T09:13:27.890Z,29.70
2019-05-23T09:15:57.840Z,29.60
2019-05-23T09:18:27.992Z,29.20
2019-05-23T09:20:58.920Z,28.00
2019-05-23T09:23:28.969Z,28.70
2019-05-23T09:26:00.022Z,28.10
2019-05-23T09:28:30.678Z,29.00
2019-05-23T09:31:00.617Z,29.80
2019-05-23T09:33:31.584Z,29.20
2019-05-23T09:36:01.477Z,30.40
2019-05-23T09:38:31.745Z,30.10
2019-05-23T09:41:01.685Z,29.40
2019-05-23T09:43:31.854Z,29.70
2019-05-23T09:46:01.720Z,29.30
2019-05-23T09:48:31.814Z,29.30
2019-05-23T09:51:01.789Z,29.30
2019-05-23T09:53:31.871Z,29.90
2019-05-23T09:56:01.907Z,29.50
2019-05-23T09:58:31.967Z,28.90
2019-05-23T10:01:02.109Z,29.30
2019-05-23T10:03:32.271Z,29.10
2019-05-23T10:06:04.554Z,29.30
2019-05-23T10:08:34.671Z,28.60
2019-05-23T10:11:04.584Z,27.60
2019-05-23T10:13:39.028Z,28.00
2019-05-23T10:16:08.602Z,27.50
2019-05-23T10:18:39.791Z,27.70
2019-05-23T10:21:10.335Z,27.80
2019-05-23T10:23:40.452Z,28.30
2019-05-23T10:26:10.511Z,27.40
2019-05-23T10:28:40.708Z,27.60
2019-05-23T10:31:12.465Z,28.60
2019-05-23T10:33:42.593Z,28.60
2019-05-23T10:36:12.541Z,28.30
2019-05-23T10:38:43.985Z,28.40
2019-05-23T10:41:13.959Z,28.50
2019-05-23T10:43:43.950Z,28.10
2019-05-23T10:46:14.579Z,28.90
2019-05-23T10:48:44.464Z,29.20
2019-05-23T10:51:14.333Z,28.50
2019-05-23T10:53:44.244Z,28.90
2019-05-23T10:56:14.284Z,28.80
2019-05-23T10:58:44.335Z,28.20
2019-05-23T11:01:15.561Z,28.20
2019-05-23T11:03:46.540Z,27.80
2019-05-23T11:06:19.047Z,27.20
2019-05-23T11:08:48.948Z,26.80
2019-05-23T11:11:19.024Z,26.20
2019-05-23T11:13:49.944Z,26.60
2019-05-23T11:16:19.779Z,26.90
2019-05-23T11:18:50.125Z,26.70
2019-05-23T11:21:20.951Z,26.80
2019-05-23T11:23:52.958Z,27.20
2019-05-23T11:26:22.816Z,27.30
2019-05-23T11:28:54.491Z,26.80
2019-05-23T11:31:25.681Z,26.00
2019-05-23T11:33:55.741Z,26.10
2019-05-23T11:36:35.415Z,26.30
2019-05-23T11:38:57.823Z,26.40
2019-05-23T11:41:32.009Z,26.50
2019-05-23T11:44:02.176Z,26.60
2019-05-23T11:46:35.575Z,27.30
2019-05-23T11:49:06.555Z,27.80
2019-05-23T11:51:37.996Z,27.60
2019-05-23T11:54:09.608Z,27.60
2019-05-23T11:56:40.091Z,27.40
2019-05-23T11:59:11.960Z,26.50
2019-05-23T12:01:53.470Z,26.00
2019-05-23T12:04:30.592Z,27.00
2019-05-23T12:07:05.492Z,26.90
2019-05-23T12:09:35.469Z,26.30
2019-05-23T12:12:05.706Z,26.20
2019-05-23T12:14:36.515Z,26.30
2019-05-23T12:17:09.163Z,26.50
2019-05-23T12:19:39.100Z,26.10
2019-05-23T12:22:09.569Z,26.40
2019-05-23T12:24:39.595Z,25.60
2019-05-23T12:27:09.619Z,26.30
2019-05-23T12:29:39.570Z,26.40
2019-05-23T12:32:11.845Z,26.50
2019-05-23T12:34:41.821Z,25.90
2019-05-23T12:37:19.040Z,25.70
2019-05-23T12:39:44.271Z,26.00
2019-05-23T12:42:14.136Z,25.70
2019-05-23T12:44:44.020Z,26.30
2019-05-23T12:47:22.302Z,25.80
2019-05-23T12:49:57.540Z,25.70
2019-05-23T12:52:27.464Z,25.60
2019-05-23T12:54:57.391Z,25.30
2019-05-23T12:57:27.834Z,25.30
2019-05-23T12:59:58.436Z,25.20
2019-05-23T13:02:28.636Z,25.60
2019-05-23T13:04:59.681Z,25.50
2019-05-23T13:07:36.221Z,25.00
2019-05-23T13:10:01.515Z,24.90
2019-05-23T13:12:31.683Z,24.50
2019-05-23T13:15:21.058Z,24.50
2019-05-23T13:17:51.561Z,25.40
2019-05-23T13:20:22.262Z,25.10
2019-05-23T13:22:52.204Z,25.50
2019-05-23T13:25:23.424Z,26.20
2019-05-23T13:27:58.362Z,25.80
2019-05-23T13:30:26.230Z,25.30
2019-05-23T13:32:56.204Z,25.30
2019-05-23T13:35:26.873Z,24.90
2019-05-23T13:37:56.931Z,25.50
2019-05-23T13:40:26.877Z,25.40
2019-05-23T13:42:57.154Z,25.60
2019-05-23T13:45:27.388Z,24.70
2019-05-23T13:47:57.288Z,24.90
2019-05-23T13:50:28.591Z,24.40
2019-05-23T13:52:58.629Z,24.40
2019-05-23T13:55:31.356Z,24.70
2019-05-23T13:58:01.761Z,24.90
2019-05-23T14:00:33.476Z,24.30
2019-05-23T14:03:03.473Z,24.40
2019-05-23T14:05:33.638Z,24.20
2019-05-23T14:08:12.470Z,24.30
2019-05-23T14:10:37.788Z,24.60
2019-05-23T14:13:07.686Z,24.80
2019-05-23T14:15:43.329Z,24.30
2019-05-23T14:18:16.990Z,23.90
2019-05-23T14:20:48.011Z,24.20
2019-05-23T14:23:23.902Z,24.00
2019-05-23T14:25:54.058Z,24.50
2019-05-23T14:28:24.590Z,24.40
2019-05-23T14:31:19.519Z,24.60
2019-05-23T14:33:55.627Z,24.30
2019-05-23T14:36:44.067Z,24.30
2019-05-23T14:39:24.133Z,24.30
2019-05-23T14:42:00.236Z,24.60
2019-05-23T14:44:30.628Z,25.00
2019-05-23T14:47:19.859Z,24.30
2019-05-23T14:50:02.418Z,24.60
2019-05-23T14:52:38.813Z,25.10
2019-05-23T14:55:10.862Z,25.10
2019-05-23T14:57:41.524Z,24.70
2019-05-23T15:00:13.575Z,24.10
2019-05-23T15:02:43.611Z,23.90
2019-05-23T15:05:13.456Z,23.80
2019-05-23T15:07:43.538Z,24.20
2019-05-23T15:10:13.755Z,23.80
2019-05-23T15:12:44.082Z,23.80
2019-05-23T15:15:14.199Z,23.50
2019-05-23T15:17:44.091Z,23.50
2019-05-23T15:20:14.016Z,23.30
2019-05-23T15:22:44.060Z,23.20
2019-05-23T15:25:14.062Z,22.90
2019-05-23T15:27:46.937Z,22.80
2019-05-23T15:30:17.285Z,22.90
2019-05-23T15:32:47.199Z,22.90
2019-05-23T15:35:17.938Z,22.90
2019-05-23T15:37:48.204Z,22.70
2019-05-23T15:40:18.832Z,22.70
2019-05-23T15:42:49.358Z,22.40
2019-05-23T15:45:19.497Z,22.20
2019-05-23T15:47:49.667Z,22.00
2019-05-23T15:50:21.913Z,22.00
2019-05-23T15:53:13.883Z,22.00
2019-05-23T15:56:24.006Z,22.00
2019-05-23T15:58:40.623Z,22.00
2019-05-23T16:01:13.815Z,22.00
2019-05-23T16:03:58.932Z,22.00
2019-05-23T16:06:30.581Z,21.80
2019-05-23T16:09:00.635Z,21.70
2019-05-23T16:11:30.553Z,21.80
2019-05-23T16:14:19.845Z,21.70
2019-05-23T16:16:50.041Z,21.80
2019-05-23T16:19:19.999Z,21.70
2019-05-23T16:22:09.789Z,21.80
2019-05-23T16:24:40.015Z,21.80
2019-05-23T16:27:12.758Z,21.80
2019-05-23T16:29:42.766Z,21.80
2019-05-23T16:32:13.229Z,21.70
2019-05-23T16:34:43.523Z,21.70
2019-05-23T16:37:13.841Z,21.70
2019-05-23T16:39:48.192Z,21.60
2019-05-23T16:42:16.310Z,21.50
2019-05-23T16:44:46.494Z,21.50
2019-05-23T16:47:16.629Z,21.40
2019-05-23T16:49:47.007Z,21.30
2019-05-23T16:52:17.187Z,21.20
2019-05-23T16:54:49.342Z,21.10
2019-05-23T16:57:36.411Z,21.20
2019-05-23T17:00:34.909Z,21.30
2019-05-23T17:03:42.294Z,21.20
2019-05-23T17:06:20.764Z,21.20
2019-05-23T17:09:02.555Z,21.20
2019-05-23T17:11:57.434Z,21.10
2019-05-23T17:14:32.700Z,21.10
2019-05-23T17:17:43.037Z,21.00
2019-05-23T17:20:18.663Z,20.90
2019-05-23T17:22:55.150Z,20.90
2019-05-23T17:25:36.294Z,20.80
2019-05-23T17:28:20.782Z,20.70
2019-05-23T17:30:53.556Z,20.70
2019-05-23T17:33:23.894Z,20.60
2019-05-23T17:35:53.771Z,20.50
2019-05-23T17:38:23.811Z,20.50
2019-05-23T17:40:53.571Z,20.50
2019-05-23T17:43:23.494Z,20.30
2019-05-23T17:45:53.375Z,20.20
2019-05-23T17:48:23.158Z,20.20
2019-05-23T17:50:52.994Z,20.20
2019-05-23T17:53:22.959Z,20.10
2019-05-23T17:55:53.238Z,20.10
2019-05-23T17:58:24.130Z,20.10
2019-05-23T18:00:54.545Z,20.10
2019-05-23T18:03:24.719Z,20.00
2019-05-23T18:05:54.827Z,20.00
2019-05-23T18:08:25.851Z,19.90
2019-05-23T18:10:56.593Z,19.80
2019-05-23T18:13:26.923Z,19.70
2019-05-23T18:15:57.905Z,19.70
2019-05-23T18:18:28.447Z,19.60
2019-05-23T18:20:59.599Z,19.50
2019-05-23T18:23:31.009Z,19.50
2019-05-23T18:26:01.267Z,19.40
2019-05-23T18:28:31.031Z,19.30
2019-05-23T18:31:08.167Z,19.30
2019-05-23T18:33:36.928Z,19.20
2019-05-23T18:36:07.084Z,19.10
2019-05-23T18:38:37.701Z,19.10
2019-05-23T18:41:09.358Z,19.00
2019-05-23T18:43:40.155Z,18.90
2019-05-23T18:46:16.008Z,18.80
2019-05-23T18:48:46.319Z,18.70
2019-05-23T18:51:16.167Z,18.60
2019-05-23T18:53:46.279Z,18.40
2019-05-23T18:56:16.721Z,18.30
2019-05-23T18:58:46.568Z,18.10
2019-05-23T19:01:22.455Z,17.90
2019-05-23T19:03:52.393Z,17.70
2019-05-23T19:06:23.238Z,17.60
2019-05-23T19:08:53.557Z,17.50
2019-05-23T19:11:23.637Z,17.30
2019-05-23T19:13:53.538Z,17.10
2019-05-23T19:16:23.523Z,17.10
2019-05-23T19:18:53.604Z,17.00
2019-05-23T19:21:24.950Z,16.90
2019-05-23T19:23:55.218Z,16.90
2019-05-23T19:26:25.450Z,16.70
2019-05-23T19:28:55.888Z,16.70
2019-05-23T19:31:26.290Z,16.60
2019-05-23T19:33:56.535Z,16.60
2019-05-23T19:36:26.582Z,16.50
2019-05-23T19:38:56.400Z,16.40
2019-05-23T19:41:36.811Z,16.30
2019-05-23T19:43:57.963Z,16.20
2019-05-23T19:46:28.312Z,16.10
2019-05-23T19:48:59.094Z,16.00
2019-05-23T19:51:29.146Z,15.90
2019-05-23T19:53:59.367Z,15.80
2019-05-23T19:56:29.790Z,15.70
2019-05-23T19:58:59.614Z,15.50
2019-05-23T20:01:33.788Z,15.30
2019-05-23T20:04:04.373Z,15.10
2019-05-23T20:06:34.684Z,15.00
2019-05-23T20:09:09.707Z,14.90
2019-05-23T20:11:53.385Z,14.80
2019-05-23T20:14:11.396Z,14.70
2019-05-23T20:16:41.937Z,14.70
2019-05-23T20:19:12.506Z,14.70
2019-05-23T20:21:42.882Z,14.70
2019-05-23T20:24:13.368Z,14.70
2019-05-23T20:26:43.208Z,14.60
2019-05-23T20:29:16.384Z,14.50
2019-05-23T20:31:48.682Z,14.40
2019-05-23T20:34:18.091Z,14.30
2019-05-23T20:36:48.176Z,14.20
2019-05-23T20:39:20.140Z,14.20
2019-05-23T20:41:50.242Z,14.10
2019-05-23T20:44:20.170Z,14.00
2019-05-23T20:46:50.047Z,13.90
2019-05-23T20:49:32.324Z,13.80
2019-05-23T20:52:02.260Z,13.90
2019-05-23T20:54:33.636Z,13.90
2019-05-23T20:57:03.786Z,13.80
2019-05-23T20:59:33.748Z,13.80
2019-05-23T21:02:03.659Z,13.70
2019-05-23T21:04:33.532Z,13.70
2019-05-23T21:07:03.462Z,13.70
2019-05-23T21:09:33.365Z,13.70
2019-05-23T21:12:03.319Z,13.60
2019-05-23T21:14:33.422Z,13.60
2019-05-23T21:17:03.815Z,13.50
2019-05-23T21:19:37.325Z,13.60
2019-05-23T21:22:07.434Z,13.50
2019-05-23T21:24:37.662Z,13.40
2019-05-23T21:27:07.774Z,13.40
2019-05-23T21:29:38.228Z,13.30
2019-05-23T21:32:08.138Z,13.30
2019-05-23T21:34:38.463Z,13.20
2019-05-23T21:37:09.097Z,13.20
2019-05-23T21:39:39.535Z,13.10
2019-05-23T21:42:09.376Z,13.10
2019-05-23T21:44:39.223Z,13.10
2019-05-23T21:47:09.847Z,13.10
2019-05-23T21:49:40.143Z,13.10
2019-05-23T21:52:10.078Z,13.00
2019-05-23T21:54:39.912Z,12.90
2019-05-23T21:57:10.431Z,12.90
2019-05-23T21:59:40.266Z,12.90
2019-05-23T22:02:32.869Z,12.90
2019-05-23T22:05:15.239Z,12.80
2019-05-23T22:07:45.449Z,12.70
2019-05-23T22:10:15.650Z,12.70
2019-05-23T22:12:45.575Z,12.60
2019-05-23T22:15:19.859Z,12.50
2019-05-23T22:17:49.894Z,12.60
2019-05-23T22:20:20.070Z,12.70
2019-05-23T22:22:50.166Z,12.60
2019-05-23T22:25:31.690Z,12.70
2019-05-23T22:28:01.577Z,12.60
2019-05-23T22:30:32.115Z,12.60
2019-05-23T22:33:02.366Z,12.40
2019-05-23T22:35:32.744Z,12.40
2019-05-23T22:38:02.836Z,12.40
2019-05-23T22:40:33.241Z,12.30
2019-05-23T22:43:03.292Z,12.30
2019-05-23T22:45:34.246Z,12.20
2019-05-23T22:48:05.668Z,12.20
2019-05-23T22:50:35.821Z,12.20
2019-05-23T22:53:05.658Z,12.30
2019-05-23T22:55:36.034Z,12.20
2019-05-23T22:58:06.982Z,12.20
2019-05-23T23:00:39.031Z,12.20
2019-05-23T23:03:09.444Z,12.10
2019-05-23T23:05:39.319Z,12.20
2019-05-23T23:08:09.618Z,12.20
2019-05-23T23:10:39.980Z,12.10
2019-05-23T23:13:10.166Z,12.10
2019-05-23T23:15:40.050Z,12.00
2019-05-23T23:18:09.915Z,12.00
2019-05-23T23:20:39.834Z,12.00
2019-05-23T23:23:10.398Z,11.90
2019-05-23T23:25:40.544Z,11.80
2019-05-23T23:28:10.343Z,11.90
2019-05-23T23:30:42.050Z,11.90
2019-05-23T23:33:11.904Z,11.90
2019-05-23T23:35:42.162Z,11.80
2019-05-23T23:38:12.035Z,11.80
2019-05-23T23:40:41.862Z,11.90
2019-05-23T23:43:11.713Z,11.80
2019-05-23T23:45:59.400Z,11.80
2019-05-23T23:48:47.039Z,11.80
2019-05-23T23:51:34.661Z,11.80
2019-05-23T23:54:22.196Z,11.70
2019-05-23T23:57:10.196Z,11.70
2019-05-23T23:59:39.195Z,11.60
